Time,TemperatureF,DewpointF,PressureIn,WindDirection,WindDirectionDegrees,WindSpeedMPH,WindSpeedGustMPH,Humidity,HourlyPrecipIn,Conditions,Clouds,dailyrainin,SoftwareType,DateUTC
2013-08-15 00:00:00,74.6,74.6,29.96,South,180,0.0,6.7,100,0.00,,SKC,0.00,VWS V14.01,2013-08-15 04:00:00,
2013-08-15 00:03:00,74.6,74.6,29.97,South,180,0.0,6.7,100,0.00,,SKC,0.00,VWS V14.01,2013-08-15 04:03:00,
2013-08-15 00:04:00,74.5,74.5,29.97,South,180,0.0,6.7,100,0.00,,SKC,0.00,VWS V14.01,2013-08-15 04:04:00,
2013-08-15 00:05:00,74.6,74.6,29.97,South,180,0.0,6.7,100,0.00,,SKC,0.00,VWS V14.01,2013-08-15 04:05:00,
2013-08-15 00:08:00,74.6,74.6,29.97,South,180,0.0,6.7,100,0.00,,SKC,0.00,VWS V14.01,2013-08-15 04:08:00,
2013-08-15 00:09:00,74.5,74.5,29.97,South,180,0.0,6.7,100,0.00,,SKC,0.00,VWS V14.01,2013-08-15 04:09:00,
2013-08-15 00:10:00,74.5,74.5,29.97,South,180,0.0,6.7,100,0.00,,SKC,0.00,VWS V14.01,2013-08-15 04:10:00,
2013-08-15 00:13:00,74.5,74.5,29.97,South,180,0.0,6.7,100,0.00,,SKC,0.00,VWS V14.01,2013-08-15 04:13:00,
2013-08-15 00:14:00,74.5,74.5,29.97,South,180,0.0,6.7,100,0.00,,SKC,0.00,VWS V14.01,2013-08-15 04:14:00,
2013-08-15 00:15:00,74.4,74.4,29.97,South,180,0.0,6.7,100,0.00,,SKC,0.00,VWS V14.01,2013-08-15 04:15:00,
2013-08-15 00:16:00,74.5,74.5,29.97,South,180,0.0,6.7,100,0.00,,SKC,0.00,VWS V14.01,2013-08-15 04:16:00,
2013-08-15 00:19:00,74.4,74.4,29.97,South,180,0.0,6.7,100,0.00,,SKC,0.00,VWS V14.01,2013-08-15 04:19:00,
2013-08-15 00:20:00,74.5,74.5,29.97,South,180,0.0,6.7,100,0.00,,SKC,0.00,VWS V14.01,2013-08-15 04:20:00,
2013-08-15 00:21:00,74.5,74.5,29.97,South,180,0.0,6.7,100,0.00,,SKC,0.00,VWS V14.01,2013-08-15 04:21:00,
2013-08-15 00:24:00,74.5,74.5,29.97,South,180,0.0,6.7,100,0.00,,SKC,0.00,VWS V14.01,2013-08-15 04:24:00,
2013-08-15 00:25:00,74.4,74.4,29.97,South,180,0.0,6.7,100,0.00,,SKC,0.00,VWS V14.01,2013-08-15 04:25:00,
2013-08-15 00:26:00,74.5,74.5,29.97,South,180,0.0,6.7,100,0.00,,SKC,0.00,VWS V14.01,2013-08-15 04:26:00,
2013-08-15 00:29:00,74.4,74.4,29.97,South,180,0.0,6.7,100,0.00,,SKC,0.00,VWS V14.01,2013-08-15 04:29:00,
2013-08-15 00:30:00,74.4,74.4,29.97,South,180,0.0,6.7,100,0.00,,SKC,0.00,VWS V14.01,2013-08-15 04:30:00,
2013-08-15 00:31:00,74.3,74.3,29.97,South,180,0.0,6.7,100,0.00,,SKC,0.00,VWS V14.01,2013-08-15 04:31:00,
2013-08-15 00:34:00,74.4,74.4,29.97,South,180,0.0,6.7,100,0.00,,SKC,0.00,VWS V14.01,2013-08-15 04:34:00,
2013-08-15 00:35:00,74.3,74.3,29.97,South,180,0.0,6.7,100,0.00,,SKC,0.00,VWS V14.01,2013-08-15 04:35:00,
2013-08-15 00:36:00,74.2,74.2,29.97,South,180,0.0,6.7,100,0.00,,SKC,0.00,VWS V14.01,2013-08-15 04:36:00,
2013-08-15 00:39:00,74.2,74.2,29.97,South,180,0.0,6.7,100,0.00,,SKC,0.00,VWS V14.01,2013-08-15 04:39:00,
2013-08-15 00:40:00,74.3,74.3,29.97,South,180,0.0,6.7,100,0.00,,SKC,0.00,VWS V14.01,2013-08-15 04:40:00,
2013-08-15 00:41:00,74.2,74.2,29.97,South,180,0.0,6.7,100,0.00,,SKC,0.00,VWS V14.01,2013-08-15 04:41:00,
2013-08-15 00:42:00,74.2,74.2,29.97,South,180,0.0,6.7,100,0.00,,SKC,0.00,VWS V14.01,2013-08-15 04:42:00,
2013-08-15 00:44:00,74.2,74.2,29.97,South,180,0.0,6.7,100,0.00,,SKC,0.00,VWS V14.01,2013-08-15 04:44:00,
2013-08-15 00:46:00,74.1,74.1,29.97,South,180,0.0,6.7,100,0.00,,SKC,0.00,VWS V14.01,2013-08-15 04:46:00,
2013-08-15 00:47:00,74.2,74.2,29.97,South,180,0.0,6.7,100,0.00,,SKC,0.00,VWS V14.01,2013-08-15 04:47:00,
2013-08-15 00:49:00,74.1,74.1,29.97,South,180,0.0,6.7,100,0.00,,SKC,0.00,VWS V14.01,2013-08-15 04:49:00,
2013-08-15 00:50:00,74.1,74.1,29.97,South,180,0.0,6.7,100,0.00,,SKC,0.00,VWS V14.01,2013-08-15 04:50:00,
2013-08-15 00:51:00,74.0,74.0,29.97,South,180,0.0,6.7,100,0.00,,SKC,0.00,VWS V14.01,2013-08-15 04:51:00,
2013-08-15 00:52:00,74.1,74.1,29.97,South,180,0.0,6.7,100,0.00,,SKC,0.00,VWS V14.01,2013-08-15 04:52:00,
2013-08-15 00:54:00,74.0,74.0,29.97,South,180,0.0,6.7,100,0.00,,SKC,0.00,VWS V14.01,2013-08-15 04:54:00,
2013-08-15 00:55:00,74.0,74.0,29.97,South,180,0.0,6.7,100,0.00,,SKC,0.00,VWS V14.01,2013-08-15 04:55:00,
2013-08-15 00:56:00,74.0,74.0,29.97,South,180,0.0,6.7,100,0.00,,SKC,0.00,VWS V14.01,2013-08-15 04:56:00,
2013-08-15 00:57:00,74.0,74.0,29.97,South,180,0.0,6.7,100,0.00,,SKC,0.00,VWS V14.01,2013-08-15 04:57:00,
2013-08-15 00:59:00,73.9,73.9,29.97,South,180,0.0,6.7,100,0.00,,SKC,0.00,VWS V14.01,2013-08-15 04:59:00,
2013-08-15 01:00:00,73.9,73.9,29.97,South,180,0.0,6.7,100,0.00,,SKC,0.00,VWS V14.01,2013-08-15 05:00:00,
2013-08-15 01:01:00,73.9,73.9,29.97,South,180,0.0,0.0,100,0.00,,SKC,0.00,VWS V14.01,2013-08-15 05:01:00,
2013-08-15 01:02:00,73.9,73.9,29.97,South,180,0.0,0.0,100,0.00,,SKC,0.00,VWS V14.01,2013-08-15 05:02:00,
2013-08-15 01:03:00,73.2,73.2,29.96,South,180,0.0,0.0,100,0.00,,SKC,0.00,VWS V14.01,2013-08-15 05:03:00,
2013-08-15 01:04:00,73.3,73.3,29.96,South,180,0.0,0.0,100,0.00,,SKC,0.00,VWS V14.01,2013-08-15 05:04:00,
2013-08-15 01:05:00,73.8,73.8,29.97,South,180,0.0,0.0,100,0.00,,SKC,0.00,VWS V14.01,2013-08-15 05:05:00,
2013-08-15 01:06:00,73.8,73.8,29.97,South,180,0.0,0.0,100,0.00,,SKC,0.00,VWS V14.01,2013-08-15 05:06:00,
2013-08-15 01:07:00,73.7,73.7,29.97,South,180,0.0,0.0,100,0.00,,SKC,0.00,VWS V14.01,2013-08-15 05:07:00,
2013-08-15 01:10:00,73.7,73.7,29.97,South,180,0.0,0.0,100,0.00,,SKC,0.00,VWS V14.01,2013-08-15 05:10:00,
2013-08-15 01:11:00,73.7,73.8,29.97,South,180,0.0,0.0,100,0.00,,SKC,0.00,VWS V14.01,2013-08-15 05:11:00,
2013-08-15 01:12:00,73.6,73.6,29.97,South,180,0.0,0.0,100,0.00,,SKC,0.00,VWS V14.01,2013-08-15 05:12:00,
2013-08-15 01:15:00,73.6,73.6,29.97,South,180,0.0,0.0,100,0.00,,SKC,0.00,VWS V14.01,2013-08-15 05:15:00,
2013-08-15 01:16:00,73.6,73.6,29.97,South,180,0.0,0.0,100,0.00,,SKC,0.00,VWS V14.01,2013-08-15 05:16:00,
2013-08-15 01:17:00,73.6,73.7,29.97,South,180,0.0,0.0,100,0.00,,SKC,0.00,VWS V14.01,2013-08-15 05:17:00,
2013-08-15 01:20:00,73.6,73.6,29.97,South,180,0.0,0.0,100,0.00,,SKC,0.00,VWS V14.01,2013-08-15 05:20:00,
2013-08-15 01:21:00,73.6,73.6,29.97,South,180,0.0,0.0,100,0.00,,SKC,0.00,VWS V14.01,2013-08-15 05:21:00,
2013-08-15 01:22:00,73.6,73.6,29.97,South,180,0.0,0.0,100,0.00,,SKC,0.00,VWS V14.01,2013-08-15 05:22:00,
2013-08-15 01:23:00,73.6,73.6,29.97,South,180,0.0,0.0,100,0.00,,SKC,0.00,VWS V14.01,2013-08-15 05:23:00,
2013-08-15 01:26:00,73.6,73.6,29.97,South,180,0.0,0.0,100,0.00,,SKC,0.00,VWS V14.01,2013-08-15 05:26:00,
2013-08-15 01:27:00,73.6,73.6,29.97,South,180,0.0,0.0,100,0.00,,SKC,0.00,VWS V14.01,2013-08-15 05:27:00,
2013-08-15 01:28:00,73.4,73.4,29.97,South,180,0.0,0.0,100,0.00,,SKC,0.00,VWS V14.01,2013-08-15 05:28:00,
2013-08-15 01:31:00,73.5,73.5,29.97,South,180,0.0,0.0,100,0.00,,SKC,0.00,VWS V14.01,2013-08-15 05:31:00,
2013-08-15 01:32:00,73.5,73.5,29.96,South,180,0.0,0.0,100,0.00,,SKC,0.00,VWS V14.01,2013-08-15 05:32:00,
2013-08-15 01:33:00,73.4,73.4,29.96,South,180,0.0,0.0,100,0.00,,SKC,0.00,VWS V14.01,2013-08-15 05:33:00,
2013-08-15 01:36:00,73.4,73.4,29.96,South,180,0.0,0.0,100,0.00,,SKC,0.00,VWS V14.01,2013-08-15 05:36:00,
2013-08-15 01:37:00,73.4,73.4,29.96,South,180,0.0,0.0,100,0.00,,SKC,0.00,VWS V14.01,2013-08-15 05:37:00,
2013-08-15 01:39:00,73.4,73.4,29.96,South,180,0.0,0.0,100,0.00,,SKC,0.00,VWS V14.01,2013-08-15 05:39:00,
2013-08-15 01:41:00,73.3,73.3,29.96,South,180,0.0,0.0,100,0.00,,SKC,0.00,VWS V14.01,2013-08-15 05:41:00,
2013-08-15 01:42:00,73.3,73.3,29.96,South,180,0.0,0.0,100,0.00,,SKC,0.00,VWS V14.01,2013-08-15 05:42:00,
2013-08-15 01:44:00,73.3,73.3,29.96,South,180,0.0,0.0,100,0.00,,SKC,0.00,VWS V14.01,2013-08-15 05:44:00,
2013-08-15 01:46:00,73.3,73.3,29.96,South,180,0.0,0.0,100,0.00,,SKC,0.00,VWS V14.01,2013-08-15 05:46:00,
2013-08-15 01:47:00,73.3,73.3,29.96,South,180,0.0,0.0,100,0.00,,SKC,0.00,VWS V14.01,2013-08-15 05:47:00,
2013-08-15 01:49:00,73.3,73.3,29.96,South,180,0.0,0.0,100,0.00,,SKC,0.00,VWS V14.01,2013-08-15 05:49:00,
2013-08-15 01:52:00,73.2,73.2,29.96,South,180,0.0,0.0,100,0.00,,SKC,0.00,VWS V14.01,2013-08-15 05:52:00,
2013-08-15 01:57:00,73.2,73.2,29.96,South,180,0.0,0.0,100,0.00,,SKC,0.00,VWS V14.01,2013-08-15 05:57:00,
2013-08-15 01:58:00,73.2,73.2,29.96,South,180,0.0,0.0,100,0.00,,SKC,0.00,VWS V14.01,2013-08-15 05:58:00,
2013-08-15 01:59:00,73.3,73.2,29.96,South,180,0.0,0.0,100,0.00,,SKC,0.00,VWS V14.01,2013-08-15 05:59:00,
2013-08-15 02:03:00,73.1,73.1,29.96,South,180,0.0,0.0,100,0.00,,SKC,0.00,VWS V14.01,2013-08-15 06:03:00,
2013-08-15 02:04:00,73.1,73.1,29.96,South,180,0.0,0.0,100,0.00,,SKC,0.00,VWS V14.01,2013-08-15 06:04:00,
2013-08-15 02:08:00,73.1,73.1,29.95,South,180,0.0,0.0,100,0.00,,SKC,0.00,VWS V14.01,2013-08-15 06:08:00,
2013-08-15 02:09:00,73.1,73.1,29.95,South,180,0.0,0.0,100,0.00,,SKC,0.00,VWS V14.01,2013-08-15 06:09:00,
2013-08-15 02:13:00,73.0,73.0,29.96,South,180,0.0,0.0,100,0.00,,SKC,0.00,VWS V14.01,2013-08-15 06:13:00,
2013-08-15 02:14:00,73.1,73.1,29.96,South,180,0.0,0.0,100,0.00,,SKC,0.00,VWS V14.01,2013-08-15 06:14:00,
2013-08-15 02:18:00,73.0,73.0,29.95,South,180,0.0,0.0,100,0.00,,SKC,0.00,VWS V14.01,2013-08-15 06:18:00,
2013-08-15 02:19:00,73.0,73.0,29.95,South,180,0.0,0.0,100,0.00,,SKC,0.00,VWS V14.01,2013-08-15 06:19:00,
2013-08-15 02:23:00,72.9,72.9,29.95,South,180,0.0,0.0,100,0.00,,SKC,0.00,VWS V14.01,2013-08-15 06:23:00,
2013-08-15 02:24:00,72.9,72.9,29.95,South,180,0.0,0.0,100,0.00,,SKC,0.00,VWS V14.01,2013-08-15 06:24:00,
2013-08-15 02:28:00,72.9,72.9,29.95,South,180,0.0,0.0,100,0.00,,SKC,0.00,VWS V14.01,2013-08-15 06:28:00,
2013-08-15 02:29:00,72.9,72.9,29.95,South,180,0.0,0.0,100,0.00,,SKC,0.00,VWS V14.01,2013-08-15 06:29:00,
2013-08-15 02:34:00,72.9,72.9,29.95,South,180,0.0,0.0,100,0.00,,SKC,0.00,VWS V14.01,2013-08-15 06:34:00,
2013-08-15 02:35:00,72.9,72.9,29.95,South,180,0.0,0.0,100,0.00,,SKC,0.00,VWS V14.01,2013-08-15 06:35:00,
2013-08-15 02:39:00,72.9,72.8,29.95,South,180,0.0,0.0,100,0.00,,SKC,0.00,VWS V14.01,2013-08-15 06:39:00,
2013-08-15 02:40:00,72.9,72.9,29.95,South,180,0.0,0.0,100,0.00,,SKC,0.00,VWS V14.01,2013-08-15 06:40:00,
2013-08-15 02:44:00,72.7,72.7,29.95,South,180,0.0,0.0,100,0.00,,SKC,0.00,VWS V14.01,2013-08-15 06:44:00,
2013-08-15 02:45:00,72.8,72.8,29.95,South,180,0.0,0.0,100,0.00,,SKC,0.00,VWS V14.01,2013-08-15 06:45:00,
2013-08-15 02:49:00,72.8,72.8,29.95,South,180,0.0,0.0,100,0.00,,SKC,0.00,VWS V14.01,2013-08-15 06:49:00,
2013-08-15 02:50:00,72.8,72.8,29.95,South,180,0.0,0.0,100,0.00,,SKC,0.00,VWS V14.01,2013-08-15 06:50:00,
2013-08-15 02:54:00,72.8,72.8,29.95,South,180,0.0,0.0,100,0.00,,SKC,0.00,VWS V14.01,2013-08-15 06:54:00,
2013-08-15 02:55:00,72.8,72.8,29.95,South,180,0.0,0.0,100,0.00,,SKC,0.00,VWS V14.01,2013-08-15 06:55:00,
2013-08-15 02:59:00,72.8,72.8,29.94,South,180,0.0,0.0,100,0.00,,SKC,0.00,VWS V14.01,2013-08-15 06:59:00,
2013-08-15 03:00:00,72.8,72.8,29.94,South,180,0.0,0.0,100,0.00,,SKC,0.00,VWS V14.01,2013-08-15 07:00:00,
2013-08-15 03:04:00,72.7,72.7,29.94,South,180,0.0,0.0,100,0.00,,SKC,0.00,VWS V14.01,2013-08-15 07:04:00,
2013-08-15 03:05:00,72.8,72.8,29.94,South,180,0.0,0.0,100,0.00,,SKC,0.00,VWS V14.01,2013-08-15 07:05:00,
2013-08-15 03:09:00,72.7,72.7,29.94,South,180,0.0,0.0,100,0.00,,SKC,0.00,VWS V14.01,2013-08-15 07:09:00,
2013-08-15 03:10:00,72.7,72.7,29.94,South,180,0.0,0.0,100,0.00,,SKC,0.00,VWS V14.01,2013-08-15 07:10:00,
2013-08-15 03:14:00,72.7,72.7,29.94,South,180,0.0,0.0,100,0.00,,SKC,0.00,VWS V14.01,2013-08-15 07:14:00,
2013-08-15 03:15:00,72.7,72.7,29.94,South,180,0.0,0.0,100,0.00,,SKC,0.00,VWS V14.01,2013-08-15 07:15:00,
2013-08-15 03:19:00,72.8,72.8,29.94,South,180,0.0,0.0,100,0.00,,SKC,0.00,VWS V14.01,2013-08-15 07:19:00,
2013-08-15 03:20:00,72.8,72.8,29.94,South,180,0.0,0.0,100,0.00,,SKC,0.00,VWS V14.01,2013-08-15 07:20:00,
2013-08-15 03:25:00,72.8,72.8,29.94,South,180,0.0,0.0,100,0.00,,SKC,0.00,VWS V14.01,2013-08-15 07:25:00,
2013-08-15 03:30:00,72.7,72.7,29.94,South,180,0.0,0.0,100,0.00,,SKC,0.00,VWS V14.01,2013-08-15 07:30:00,
2013-08-15 03:31:00,72.7,72.7,29.94,South,180,0.0,0.0,100,0.00,,SKC,0.00,VWS V14.01,2013-08-15 07:31:00,
2013-08-15 03:35:00,72.7,72.7,29.94,South,180,0.0,0.0,100,0.00,,SKC,0.00,VWS V14.01,2013-08-15 07:35:00,
2013-08-15 03:36:00,72.7,72.7,29.94,South,180,0.0,0.0,100,0.00,,SKC,0.00,VWS V14.01,2013-08-15 07:36:00,
2013-08-15 03:40:00,72.7,72.7,29.94,South,180,0.0,0.0,100,0.00,,SKC,0.00,VWS V14.01,2013-08-15 07:40:00,
2013-08-15 03:41:00,72.7,72.7,29.94,South,180,0.0,0.0,100,0.00,,SKC,0.00,VWS V14.01,2013-08-15 07:41:00,
2013-08-15 03:45:00,72.8,72.7,29.94,South,180,0.0,0.0,100,0.00,,SKC,0.00,VWS V14.01,2013-08-15 07:45:00,
2013-08-15 03:46:00,72.8,72.8,29.94,South,180,0.0,0.0,100,0.00,,SKC,0.00,VWS V14.01,2013-08-15 07:46:00,
2013-08-15 03:50:00,72.8,72.8,29.94,South,180,0.0,0.0,100,0.00,,SKC,0.00,VWS V14.01,2013-08-15 07:50:00,
2013-08-15 03:51:00,72.8,72.8,29.94,South,180,0.0,0.0,100,0.00,,SKC,0.00,VWS V14.01,2013-08-15 07:51:00,
2013-08-15 03:52:00,72.8,72.8,29.94,South,180,0.0,0.0,100,0.00,,SKC,0.00,VWS V14.01,2013-08-15 07:52:00,
2013-08-15 03:55:00,72.7,72.7,29.94,South,180,0.0,0.0,100,0.00,,SKC,0.00,VWS V14.01,2013-08-15 07:55:00,
2013-08-15 03:56:00,72.8,72.8,29.94,South,180,0.0,0.0,100,0.00,,SKC,0.00,VWS V14.01,2013-08-15 07:56:00,
2013-08-15 03:57:00,72.7,72.7,29.94,South,180,0.0,0.0,100,0.00,,SKC,0.00,VWS V14.01,2013-08-15 07:57:00,
2013-08-15 04:00:00,72.7,72.7,29.94,South,180,0.0,0.0,100,0.00,,SKC,0.00,VWS V14.01,2013-08-15 08:00:00,
2013-08-15 04:01:00,72.7,72.7,29.94,South,180,0.0,0.0,100,0.00,,SKC,0.00,VWS V14.01,2013-08-15 08:01:00,
2013-08-15 04:02:00,72.8,72.8,29.94,South,180,0.0,0.0,100,0.00,,SKC,0.00,VWS V14.01,2013-08-15 08:02:00,
2013-08-15 04:06:00,72.8,72.8,29.94,South,180,0.0,0.0,100,0.00,,SKC,0.00,VWS V14.01,2013-08-15 08:06:00,
2013-08-15 04:07:00,72.8,72.8,29.94,South,180,0.0,0.0,100,0.00,,SKC,0.00,VWS V14.01,2013-08-15 08:07:00,
2013-08-15 04:08:00,72.7,72.7,29.94,South,180,0.0,0.0,100,0.00,,SKC,0.00,VWS V14.01,2013-08-15 08:08:00,
2013-08-15 04:11:00,72.7,72.7,29.94,South,180,0.0,0.0,100,0.00,,SKC,0.00,VWS V14.01,2013-08-15 08:11:00,
2013-08-15 04:12:00,72.7,72.7,29.94,South,180,0.0,0.0,100,0.00,,SKC,0.00,VWS V14.01,2013-08-15 08:12:00,
2013-08-15 04:13:00,72.7,72.7,29.94,South,180,0.0,0.0,100,0.00,,SKC,0.00,VWS V14.01,2013-08-15 08:13:00,
2013-08-15 04:16:00,72.7,72.7,29.94,South,180,0.0,0.0,100,0.00,,SKC,0.00,VWS V14.01,2013-08-15 08:16:00,
2013-08-15 04:17:00,72.6,72.6,29.94,South,180,0.0,0.0,100,0.00,,SKC,0.00,VWS V14.01,2013-08-15 08:17:00,
2013-08-15 04:18:00,72.7,72.7,29.94,South,180,0.0,0.0,100,0.00,,SKC,0.00,VWS V14.01,2013-08-15 08:18:00,
2013-08-15 04:21:00,72.6,72.6,29.94,South,180,0.0,0.0,100,0.00,,SKC,0.00,VWS V14.01,2013-08-15 08:21:00,
2013-08-15 04:22:00,72.7,72.7,29.94,South,180,0.0,0.0,100,0.00,,SKC,0.00,VWS V14.01,2013-08-15 08:22:00,
2013-08-15 04:23:00,72.7,72.6,29.94,South,180,0.0,0.0,100,0.00,,SKC,0.00,VWS V14.01,2013-08-15 08:23:00,
2013-08-15 04:26:00,72.6,72.6,29.94,South,180,0.0,0.0,100,0.00,,SKC,0.00,VWS V14.01,2013-08-15 08:26:00,